Flight Track Log - Related Links

Times and Time Zones

All times are in EDT time to prevent confusion due to time zone crossing. See the UAL4476 flight status page for this flight to view local times or setup timezone preferences in your user account.

Time Position Orientation Groundspeed Altitude Reporting Facility
EDT Latitude Longitude Course Direction KTS MPH feet Rate Location/Type
Tue 06:24:51 AM 35.2019 -80.9581 232° Southwest 177 204 1,400  Level Atlanta Center
Tue 06:25:28 AM 35.1839 -80.9867 232° Southwest 176 203 3,000 2,784 Climbing Atlanta Center
Tue 06:26:28 AM 35.1353 -81.0494 227° Southwest 264 304 5,900 2,894 Climbing Atlanta Center
Tue 06:26:53 AM 35.1211 -81.0728 233° Southwest 258 297 7,100 2,066 Climbing Atlanta Center
Tue 06:27:29 AM 35.0994 -81.1269 244° Southwest 285 328 8,000 900 Climbing Atlanta Center
Tue 06:27:53 AM 35.1108 -81.1647 290° West 296 341 8,000 1,143 Level Atlanta Center
Tue 06:28:53 AM 35.1644 -81.2289 316° Northwest 286 329 9,600 1,700 Climbing Atlanta Center
Tue 06:29:53 AM 35.2542 -81.2283 360° North 276 318 11,400 1,500 Climbing Atlanta Center
Tue 06:30:53 AM 35.3294 -81.1442 42° Northeast 291 335 12,600 1,550 Climbing Atlanta Center
Tue 06:31:53 AM 35.4314 -81.1281 North 333 383 14,500 1,700 Climbing Atlanta Center
Tue 06:32:53 AM 35.5383 -81.1497 351° North 364 419 16,000 1,500 Climbing Atlanta Center
Tue 06:33:53 AM 35.6514 -81.1714 351° North 386 444 17,500 1,200 Climbing Atlanta Center
Tue 06:34:53 AM 35.7625 -81.1981 349° North 407 468 18,400 1,150 Climbing Atlanta Center
Tue 06:35:53 AM 35.8758 -81.2222 350° North 407 468 19,800 1,300 Climbing Atlanta Center
Tue 06:36:53 AM 35.9889 -81.2492 349° North 413 475 21,000 1,150 Climbing Atlanta Center
Tue 06:37:53 AM 36.1083 -81.2708 352° North 413 475 22,100 1,150 Climbing Atlanta Center
Tue 06:38:53 AM 36.2278 -81.2975 350° North 425 489 23,300 950 Climbing Atlanta Center
Tue 06:39:53 AM 36.3472 -81.3219 351° North 430 495 24,000 700 Climbing Atlanta Center
Tue 06:40:53 AM 36.4667 -81.3489 350° North 430 495 24,700 650 Climbing Atlanta Center
Tue 06:41:53 AM 36.5883 -81.3758 350° North 435 501 25,300 650 Climbing Atlanta Center
Tue 06:42:53 AM 36.7119 -81.4000 351° North 441 507 26,000 650 Climbing Atlanta Center
Tue 06:43:53 AM 36.8144 -81.4253 349° North 435 501 26,600 653 Climbing Atlanta Center
Tue 06:46:15 AM 37.1075 -81.4897 350° North 442 509 28,200 650 Climbing Indianapolis Center
Tue 06:47:16 AM 37.2278 -81.5169 350° North 439 505 28,800 595 Climbing Indianapolis Center
Tue 06:48:16 AM 37.3489 -81.5436 350° North 440 506 29,400 694 Climbing Indianapolis Center
Tue 06:49:17 AM 37.4903 -81.5756 350° North 442 509 30,200 689 Climbing Indianapolis Center
Tue 06:50:18 AM 37.6119 -81.6017 350° North 442 509 30,800 639 Climbing Indianapolis Center
Tue 06:51:19 AM 37.7358 -81.6308 349° North 448 516 31,500 590 Climbing Indianapolis Center
Tue 06:52:20 AM 37.8458 -81.6558 350° North 449 517 32,000 248 Climbing Indianapolis Center
Tue 06:53:20 AM 37.9675 -81.6831 350° North 444 511 32,000  Level Indianapolis Center
Tue 06:54:21 AM 38.0878 -81.7097 350° North 438 504 32,000  Level Indianapolis Center
Tue 06:55:22 AM 38.2078 -81.7375 350° North 437 503 32,000  Level Indianapolis Center
Tue 06:56:23 AM 38.3283 -81.7647 350° North 437 503 32,000  Level Indianapolis Center
Tue 06:57:24 AM 38.4483 -81.7878 351° North 436 502 32,000  Level Indianapolis Center
Tue 06:58:25 AM 38.5708 -81.8083 353° North 436 502 32,000  Level Indianapolis Center
Tue 06:59:26 AM 38.6942 -81.8278 353° North 438 504 32,000  Level Indianapolis Center
Tue 07:00:27 AM 38.8175 -81.8472 353° North 439 505 32,000  Level Indianapolis Center
Tue 07:01:27 AM 38.9394 -81.8678 353° North 437 503 32,000  Level Indianapolis Center
Tue 07:02:28 AM 39.0628 -81.8883 353° North 441 507 32,000  Level Indianapolis Center
Tue 07:03:29 AM 39.1864 -81.9100 352° North 446 513 32,000 -541 Level Indianapolis Center
Tue 07:04:30 AM 39.3094 -81.9292 353° North 445 512 30,900 -1,721 Descending Indianapolis Center
Tue 07:05:31 AM 39.4597 -81.9550 352° North 452 520 28,500 -2,164 Descending Indianapolis Center
Tue 07:06:32 AM 39.5869 -81.9764 353° North 459 528 26,500 -1,967 Descending Indianapolis Center
Tue 07:07:33 AM 39.7142 -81.9975 353° North 465 535 24,500 -1,951 Descending Indianapolis Center
Tue 07:08:35 AM 39.8372 -82.0194 352° North 448 516 22,500 -1,659 Descending Indianapolis Center
Tue 07:09:36 AM 39.9594 -82.0397 353° North 441 507 21,100 -1,180 Descending Indianapolis Center
Tue 07:10:37 AM 40.0808 -82.0608 352° North 438 504 20,100 -934 Descending Indianapolis Center
Tue 07:11:38 AM 40.1997 -82.0817 352° North 430 495 19,200 -1,328 Descending Indianapolis Center
Tue 07:12:39 AM 40.3150 -82.0856 359° North 422 486 17,400 -1,426 Descending Indianapolis Center
Tue 07:13:40 AM 40.4217 -82.1164 348° North 403 464 16,300 -1,033 Descending Indianapolis Center
Tue 07:14:41 AM 40.5300 -82.0575 22° Northeast 419 482 15,300 -976 Descending Indianapolis Center
Tue 07:15:43 AM 40.6258 -81.9600 38° Northeast 430 495 14,300 -927 Descending Indianapolis Center
Tue 07:16:44 AM 40.7192 -81.8658 37° Northeast 423 487 13,400 -1,172 Descending Indianapolis Center
Tue 07:17:51 AM 40.8325 -81.7522 37° Northeast 416 479 11,800 -1,465 Descending Cleveland Center
Tue 07:18:10 AM 40.8619 -81.7281 32° Northeast 417 480 11,300 -1,600 Descending Cleveland Center
Tue 07:18:51 AM 40.9231 -81.6631 39° Northeast 416 479 10,200 -1,279 Descending Cleveland Center
Tue 07:19:11 AM 40.9525 -81.6389 32° Northeast 403 464 10,000 -200 Descending Cleveland Center
Tue 07:19:51 AM 41.0214 -81.6289 North 384 442 10,000  Level Cleveland Center
Tue 07:20:11 AM 41.0525 -81.6431 341° North 353 406 10,000  Level Cleveland Center
Tue 07:20:51 AM 41.1189 -81.6664 345° North 354 407 10,000  Level Cleveland Center
Tue 07:21:12 AM 41.1500 -81.6778 345° North 363 418 10,000 -200 Level Cleveland Center
Tue 07:21:51 AM 41.2042 -81.6953 346° North 330 380 9,800 -492 Descending Cleveland Center
Tue 07:22:13 AM 41.2289 -81.7067 341° North 273 314 9,500 -1,000 Descending Cleveland Center
Tue 07:22:51 AM 41.2808 -81.7242 346° North 292 336 8,800 -1,091 Descending Cleveland Center
Tue 07:23:19 AM 41.3183 -81.7306 353° North 289 333 8,300 -1,300 Descending Cleveland Center
Tue 07:23:51 AM 41.3519 -81.7172 17° North 278 320 7,500 -1,967 Descending Cleveland Center
Tue 07:24:20 AM 41.3958 -81.7014 15° North 290 334 6,300 -2,200 Descending Cleveland Center
Tue 07:24:51 AM 41.4336 -81.6800 23° Northeast 272 313 5,300 -1,770 Descending Cleveland Center
Tue 07:25:21 AM 41.4569 -81.6358 55° Northeast 307 353 4,500 -1,600 Descending Cleveland Center

Login

Don't have an account? Register now (free) for customized features, flight alerts, and more!